Aérodrome :
LOGIN :

S'inscrire | Disclaimer

   EN    FR    IT 

 










Légende :    VFR   VFR Marginal   IFR   IFR Intensif   IFR Très Intensif
Visi : 
Plafond : 
>= 8 km
>= 3000ft
5 à 8 km
1000 à 3000 ft
1500m à 5 km
500 à 1000 ft
800 à 1500m
200 à 500 ft
< 800m
< 200 ft
Symboles :   Orages  Brouillard  Fortes neiges  Fortes précipitations  Vent > 20 kt
SIGMETs :   Divers  Orages  Givrage  Turbulence  Onde Orograph.  Cendres Volcan.







- Altitude de l'aérodrome : 1036 ft
- Code IATA : ERF


EDDE - Erfurt

DERNIER METAR :
  • 180250Z 27009KT 9999 -SHSN SCT015 BKN021 M00/M02 Q1010 R88/790194

METARs EXPIRÉS :
  • 180220Z 27011KT 9999 -SHSN SCT013 SCT018CB M00/M01 Q1010 R88/790194
  • 180150Z 28009KT 9999 -SHSN SCT013 SCT020CB 00/M02 Q1009 R88/790194
  • 180120Z 26011KT 9999 FEW016 BKN040 M00/M02 Q1009 R88/790194
  • 180050Z 26012KT 9999 FEW016 BKN046 M00/M02 Q1008 R88/790194
  • 180020Z 27013KT 9999 FEW022 SCT042 M00/M02 Q1008 R88/790194

TAF TAF EDDE
Valide du 18 à 00h jusqu'au 19 à 00h UTC


172300Z 1800/1824 27015G25KT 9999 BKN020
PROB40
TEMPO 1800/1804 30020G30KT 2500 SHSN BKN006 SCT015CB
BECMG 1800/1802 28009KT
Pas de NOTAMs connus pour ce terrain.



MET'MAP, la Météo Aéronautique d'un coup d'oeil ! - Copyright ORBIFLY Décembre 2007 - Disclaimer

ORBIFLY MET'MAP TEAM :

Programmation & Développement : Alexandra Zaïnal
Conception & Développement : Baudouin d'Aumeries
Co-Programmation & Développement : Marc-Olivier Méhu
Soutien technique & logistique : Manuel Goepfert

Contact : metmap@orbifly.com




SOURCES & CREDITS :

   NOAA